sensor_id;sensor_type;location;lat;lon;timestamp;pressure;altitude;pressure_sealevel;temperature;humidity
64362;BME280;50685;53.346;-6.296;2023-02-28T00:01:00;103572.41;;;7.02;73.97
64362;BME280;50685;53.346;-6.296;2023-02-28T00:03:25;103574.22;;;7.03;74.00
64362;BME280;50685;53.346;-6.296;2023-02-28T00:05:50;103568.00;;;7.03;74.59
64362;BME280;50685;53.346;-6.296;2023-02-28T00:08:16;103569.75;;;7.02;74.77
64362;BME280;50685;53.346;-6.296;2023-02-28T00:10:41;103575.09;;;7.04;74.92
64362;BME280;50685;53.346;-6.296;2023-02-28T00:13:06;103575.25;;;7.07;74.42
64362;BME280;50685;53.346;-6.296;2023-02-28T00:15:32;103583.13;;;7.05;76.38
64362;BME280;50685;53.346;-6.296;2023-02-28T00:17:57;103583.13;;;7.05;75.70
64362;BME280;50685;53.346;-6.296;2023-02-28T00:20:23;103584.00;;;7.06;76.63
64362;BME280;50685;53.346;-6.296;2023-02-28T00:22:49;103574.28;;;7.05;77.04
64362;BME280;50685;53.346;-6.296;2023-02-28T00:25:16;103585.81;;;7.07;76.29
64362;BME280;50685;53.346;-6.296;2023-02-28T00:27:41;103580.59;;;7.08;76.27
64362;BME280;50685;53.346;-6.296;2023-02-28T00:30:08;103575.31;;;7.08;76.50
64362;BME280;50685;53.346;-6.296;2023-02-28T00:32:34;103584.22;;;7.11;77.83
64362;BME280;50685;53.346;-6.296;2023-02-28T00:35:00;103591.22;;;7.10;77.44
64362;BME280;50685;53.346;-6.296;2023-02-28T00:37:25;103590.41;;;7.11;78.14
64362;BME280;50685;53.346;-6.296;2023-02-28T00:39:50;103596.59;;;7.12;78.34
64362;BME280;50685;53.346;-6.296;2023-02-28T00:42:16;103590.41;;;7.11;77.56
64362;BME280;50685;53.346;-6.296;2023-02-28T00:44:41;103595.75;;;7.13;78.87
64362;BME280;50685;53.346;-6.296;2023-02-28T00:47:06;103589.56;;;7.12;79.52
64362;BME280;50685;53.346;-6.296;2023-02-28T00:49:32;103590.47;;;7.13;79.34
64362;BME280;50685;53.346;-6.296;2023-02-28T00:51:57;103596.66;;;7.13;79.73
64362;BME280;50685;53.346;-6.296;2023-02-28T00:54:23;103593.09;;;7.13;79.68
64362;BME280;50685;53.346;-6.296;2023-02-28T00:56:49;103595.75;;;7.13;80.23
64362;BME280;50685;53.346;-6.296;2023-02-28T00:59:16;103588.69;;;7.12;80.73
64362;BME280;50685;53.346;-6.296;2023-02-28T01:01:42;103592.22;;;7.12;80.51
64362;BME280;50685;53.346;-6.296;2023-02-28T01:04:07;103590.47;;;7.13;80.62
64362;BME280;50685;53.346;-6.296;2023-02-28T01:06:33;103596.66;;;7.13;80.70
64362;BME280;50685;53.346;-6.296;2023-02-28T01:08:58;103597.56;;;7.14;80.60
64362;BME280;50685;53.346;-6.296;2023-02-28T01:11:24;103601.19;;;7.16;80.69
64362;BME280;50685;53.346;-6.296;2023-02-28T01:13:49;103599.53;;;7.18;81.44
64362;BME280;50685;53.346;-6.296;2023-02-28T01:16:14;103596.88;;;7.18;80.56
64362;BME280;50685;53.346;-6.296;2023-02-28T01:18:40;103604.81;;;7.18;80.88
64362;BME280;50685;53.346;-6.296;2023-02-28T01:21:06;103605.69;;;7.18;80.98
64362;BME280;50685;53.346;-6.296;2023-02-28T01:23:32;103601.31;;;7.19;80.56
64362;BME280;50685;53.346;-6.296;2023-02-28T01:26:02;103600.47;;;7.20;80.34
64362;BME280;50685;53.346;-6.296;2023-02-28T01:28:28;103599.66;;;7.21;80.47
64362;BME280;50685;53.346;-6.296;2023-02-28T01:30:54;103600.63;;;7.23;80.18
64362;BME280;50685;53.346;-6.296;2023-02-28T01:33:20;103604.16;;;7.23;79.54
64362;BME280;50685;53.346;-6.296;2023-02-28T01:35:45;103594.53;;;7.24;79.21
64362;BME280;50685;53.346;-6.296;2023-02-28T01:38:10;103600.69;;;7.24;78.85
64362;BME280;50685;53.346;-6.296;2023-02-28T01:40:35;103598.00;;;7.23;79.30
64362;BME280;50685;53.346;-6.296;2023-02-28T01:43:01;103600.69;;;7.24;79.04
64362;BME280;50685;53.346;-6.296;2023-02-28T01:45:27;103598.06;;;7.24;79.07
64362;BME280;50685;53.346;-6.296;2023-02-28T01:48:03;103599.88;;;7.26;78.40
64362;BME280;50685;53.346;-6.296;2023-02-28T01:50:31;103603.41;;;7.26;78.36
64362;BME280;50685;53.346;-6.296;2023-02-28T01:53:02;103605.22;;;7.27;78.02
64362;BME280;50685;53.346;-6.296;2023-02-28T01:55:29;103593.75;;;7.27;78.06
64362;BME280;50685;53.346;-6.296;2023-02-28T01:57:56;103606.13;;;7.28;77.63
64362;BME280;50685;53.346;-6.296;2023-02-28T02:00:24;103602.50;;;7.26;77.48
64362;BME280;50685;53.346;-6.296;2023-02-28T02:02:53;103598.94;;;7.25;77.40
64362;BME280;50685;53.346;-6.296;2023-02-28T02:05:20;103587.50;;;7.24;77.23
64362;BME280;50685;53.346;-6.296;2023-02-28T02:07:46;103596.31;;;7.25;77.19
64362;BME280;50685;53.346;-6.296;2023-02-28T02:10:16;103588.47;;;7.27;77.00
64362;BME280;50685;53.346;-6.296;2023-02-28T02:15:17;103593.75;;;7.27;77.07
64362;BME280;50685;53.346;-6.296;2023-02-28T02:17:45;103591.13;;;7.27;77.48
64362;BME280;50685;53.346;-6.296;2023-02-28T02:25:28;103594.59;;;7.26;77.67
64362;BME280;50685;53.346;-6.296;2023-02-28T02:36:02;103604.88;;;7.19;78.65
64362;BME280;50685;53.346;-6.296;2023-02-28T02:41:22;103602.06;;;7.16;79.38
64362;BME280;50685;53.346;-6.296;2023-02-28T02:46:29;103596.78;;;7.16;79.00
64362;BME280;50685;53.346;-6.296;2023-02-28T02:48:55;103593.31;;;7.17;78.41
64362;BME280;50685;53.346;-6.296;2023-02-28T02:51:22;103594.25;;;7.18;77.83
64362;BME280;50685;53.346;-6.296;2023-02-28T02:53:50;103594.16;;;7.16;77.50
64362;BME280;50685;53.346;-6.296;2023-02-28T02:56:17;103588.88;;;7.16;77.20
64362;BME280;50685;53.346;-6.296;2023-02-28T02:58:44;103588.88;;;7.16;77.15
64362;BME280;50685;53.346;-6.296;2023-02-28T03:01:12;103592.44;;;7.17;77.03
64362;BME280;50685;53.346;-6.296;2023-02-28T03:03:40;103582.75;;;7.17;77.36
64362;BME280;50685;53.346;-6.296;2023-02-28T03:06:06;103589.84;;;7.18;77.20
64362;BME280;50685;53.346;-6.296;2023-02-28T03:08:36;103585.47;;;7.19;77.11
64362;BME280;50685;53.346;-6.296;2023-02-28T03:11:06;103584.56;;;7.18;77.41
64362;BME280;50685;53.346;-6.296;2023-02-28T03:13:52;103587.16;;;7.17;77.69
64362;BME280;50685;53.346;-6.296;2023-02-28T03:18:51;103586.16;;;7.15;78.76
64362;BME280;50685;53.346;-6.296;2023-02-28T03:23:47;103594.78;;;7.11;79.03
64362;BME280;50685;53.346;-6.296;2023-02-28T03:26:19;103599.25;;;7.12;79.19
64362;BME280;50685;53.346;-6.296;2023-02-28T03:31:22;103592.16;;;7.11;78.74
64362;BME280;50685;53.346;-6.296;2023-02-28T03:33:55;103596.59;;;7.12;78.84
64362;BME280;50685;53.346;-6.296;2023-02-28T03:36:25;103596.59;;;7.12;79.16
64362;BME280;50685;53.346;-6.296;2023-02-28T03:41:30;103600.06;;;7.11;79.21
64362;BME280;50685;53.346;-6.296;2023-02-28T03:43:58;103600.06;;;7.11;78.73
64362;BME280;50685;53.346;-6.296;2023-02-28T03:46:25;103607.06;;;7.10;78.88
64362;BME280;50685;53.346;-6.296;2023-02-28T03:48:54;103607.97;;;7.11;79.37
64362;BME280;50685;53.346;-6.296;2023-02-28T03:51:21;103612.34;;;7.10;78.82
64362;BME280;50685;53.346;-6.296;2023-02-28T03:53:50;103607.06;;;7.10;78.99
64362;BME280;50685;53.346;-6.296;2023-02-28T03:56:17;103608.81;;;7.10;79.18
64362;BME280;50685;53.346;-6.296;2023-02-28T03:58:47;103612.28;;;7.08;79.03
64362;BME280;50685;53.346;-6.296;2023-02-28T04:01:20;103614.91;;;7.08;79.34
64362;BME280;50685;53.346;-6.296;2023-02-28T04:03:46;103614.03;;;7.08;79.52
64362;BME280;50685;53.346;-6.296;2023-02-28T04:06:19;103614.91;;;7.08;79.78
64362;BME280;50685;53.346;-6.296;2023-02-28T04:08:45;103609.63;;;7.08;79.72
64362;BME280;50685;53.346;-6.296;2023-02-28T04:13:41;103614.22;;;7.13;79.55
64362;BME280;50685;53.346;-6.296;2023-02-28T04:16:08;103608.88;;;7.11;79.10
64362;BME280;50685;53.346;-6.296;2023-02-28T04:18:37;103619.44;;;7.11;78.75
64362;BME280;50685;53.346;-6.296;2023-02-28T04:21:03;103615.06;;;7.12;78.90
64362;BME280;50685;53.346;-6.296;2023-02-28T04:23:31;103616.78;;;7.11;78.75
64362;BME280;50685;53.346;-6.296;2023-02-28T04:25:57;103616.72;;;7.10;78.39
64362;BME280;50685;53.346;-6.296;2023-02-28T04:28:22;103619.28;;;7.08;78.46
64362;BME280;50685;53.346;-6.296;2023-02-28T04:30:47;103616.66;;;7.08;78.46
64362;BME280;50685;53.346;-6.296;2023-02-28T04:33:13;103627.22;;;7.08;78.68
64362;BME280;50685;53.346;-6.296;2023-02-28T04:35:38;103628.94;;;7.07;78.23
64362;BME280;50685;53.346;-6.296;2023-02-28T04:38:03;103632.50;;;7.08;78.75
64362;BME280;50685;53.346;-6.296;2023-02-28T04:40:28;103628.03;;;7.07;78.69
64362;BME280;50685;53.346;-6.296;2023-02-28T04:42:54;103635.03;;;7.06;78.91
64362;BME280;50685;53.346;-6.296;2023-02-28T04:45:19;103633.25;;;7.05;78.46
64362;BME280;50685;53.346;-6.296;2023-02-28T04:47:44;103643.81;;;7.05;79.57
64362;BME280;50685;53.346;-6.296;2023-02-28T04:50:10;103639.25;;;7.03;80.16
64362;BME280;50685;53.346;-6.296;2023-02-28T04:52:35;103641.00;;;7.02;80.05
64362;BME280;50685;53.346;-6.296;2023-02-28T04:55:02;103645.28;;;7.00;80.64
64362;BME280;50685;53.346;-6.296;2023-02-28T04:57:27;103646.88;;;6.97;77.96
64362;BME280;50685;53.346;-6.296;2023-02-28T04:59:53;103641.41;;;6.92;76.35
64362;BME280;50685;53.346;-6.296;2023-02-28T05:02:18;103645.63;;;6.88;75.28
64362;BME280;50685;53.346;-6.296;2023-02-28T05:04:45;103645.47;;;6.85;74.69
64362;BME280;50685;53.346;-6.296;2023-02-28T05:07:10;103646.22;;;6.83;75.40
64362;BME280;50685;53.346;-6.296;2023-02-28T05:09:35;103644.28;;;6.79;76.88
64362;BME280;50685;53.346;-6.296;2023-02-28T05:12:01;103648.56;;;6.77;78.15
64362;BME280;50685;53.346;-6.296;2023-02-28T05:14:26;103654.59;;;6.74;80.16
64362;BME280;50685;53.346;-6.296;2023-02-28T05:16:51;103661.97;;;6.63;80.85
64362;BME280;50685;53.346;-6.296;2023-02-28T05:19:17;103666.56;;;6.49;82.85
64362;BME280;50685;53.346;-6.296;2023-02-28T05:21:54;103665.00;;;6.36;83.73
64362;BME280;50685;53.346;-6.296;2023-02-28T05:24:20;103666.25;;;6.26;83.53
64362;BME280;50685;53.346;-6.296;2023-02-28T05:26:48;103664.00;;;6.16;84.21
64362;BME280;50685;53.346;-6.296;2023-02-28T05:29:13;103674.84;;;6.06;82.72
64362;BME280;50685;53.346;-6.296;2023-02-28T05:31:38;103666.63;;;6.00;82.87
64362;BME280;50685;53.346;-6.296;2023-02-28T05:34:04;103675.91;;;5.93;83.70
64362;BME280;50685;53.346;-6.296;2023-02-28T05:36:29;103681.13;;;5.91;85.02
64362;BME280;50685;53.346;-6.296;2023-02-28T05:38:54;103677.34;;;5.86;85.40
64362;BME280;50685;53.346;-6.296;2023-02-28T05:41:20;103677.22;;;5.85;86.51
64362;BME280;50685;53.346;-6.296;2023-02-28T05:43:45;103678.91;;;5.83;86.47
64362;BME280;50685;53.346;-6.296;2023-02-28T05:46:11;103672.63;;;5.81;87.04
64362;BME280;50685;53.346;-6.296;2023-02-28T05:48:37;103681.53;;;5.83;87.21
64362;BME280;50685;53.346;-6.296;2023-02-28T05:51:03;103677.16;;;5.83;87.70
64362;BME280;50685;53.346;-6.296;2023-02-28T05:53:29;103679.88;;;5.85;87.15
64362;BME280;50685;53.346;-6.296;2023-02-28T05:55:54;103685.25;;;5.86;86.34
64362;BME280;50685;53.346;-6.296;2023-02-28T05:58:20;103677.47;;;5.89;87.19
64362;BME280;50685;53.346;-6.296;2023-02-28T06:00:45;103684.72;;;5.93;87.02
64362;BME280;50685;53.346;-6.296;2023-02-28T06:03:11;103684.72;;;5.93;86.56
64362;BME280;50685;53.346;-6.296;2023-02-28T06:05:36;103687.53;;;5.97;85.14
64362;BME280;50685;53.346;-6.296;2023-02-28T06:08:03;103683.28;;;5.99;84.34
64362;BME280;50685;53.346;-6.296;2023-02-28T06:10:28;103679.97;;;6.03;84.19
64362;BME280;50685;53.346;-6.296;2023-02-28T06:12:53;103683.50;;;6.03;86.05
64362;BME280;50685;53.346;-6.296;2023-02-28T06:15:19;103687.94;;;6.04;85.98
64362;BME280;50685;53.346;-6.296;2023-02-28T06:17:45;103683.50;;;6.03;84.79
64362;BME280;50685;53.346;-6.296;2023-02-28T06:20:12;103682.63;;;6.03;85.97
64362;BME280;50685;53.346;-6.296;2023-02-28T06:22:40;103683.50;;;6.03;86.25
64362;BME280;50685;53.346;-6.296;2023-02-28T06:25:05;103676.34;;;6.01;83.66
64362;BME280;50685;53.346;-6.296;2023-02-28T06:27:31;103681.72;;;6.02;85.00
64362;BME280;50685;53.346;-6.296;2023-02-28T06:29:56;103681.78;;;6.04;84.96
64362;BME280;50685;53.346;-6.296;2023-02-28T06:32:22;103683.63;;;6.05;84.92
64362;BME280;50685;53.346;-6.296;2023-02-28T06:34:47;103685.31;;;6.04;85.40
64362;BME280;50685;53.346;-6.296;2023-02-28T06:37:13;103683.50;;;6.03;83.57
64362;BME280;50685;53.346;-6.296;2023-02-28T06:39:38;103693.16;;;6.03;83.15
64362;BME280;50685;53.346;-6.296;2023-02-28T06:42:04;103692.41;;;6.05;84.09
64362;BME280;50685;53.346;-6.296;2023-02-28T06:44:29;103704.75;;;6.06;84.01
64362;BME280;50685;53.346;-6.296;2023-02-28T06:47:00;103698.66;;;6.07;83.96
64362;BME280;50685;53.346;-6.296;2023-02-28T06:49:26;103698.81;;;6.10;84.17
64362;BME280;50685;53.346;-6.296;2023-02-28T06:51:52;103705.97;;;6.13;84.30
64362;BME280;50685;53.346;-6.296;2023-02-28T06:54:17;103710.50;;;6.16;85.22
64362;BME280;50685;53.346;-6.296;2023-02-28T06:56:42;103715.75;;;6.16;84.90
64362;BME280;50685;53.346;-6.296;2023-02-28T06:59:08;103714.88;;;6.15;85.97
64362;BME280;50685;53.346;-6.296;2023-02-28T07:01:33;103724.41;;;6.13;86.34
64362;BME280;50685;53.346;-6.296;2023-02-28T07:03:59;103727.06;;;6.13;86.61
64362;BME280;50685;53.346;-6.296;2023-02-28T07:06:25;103727.91;;;6.12;86.70
64362;BME280;50685;53.346;-6.296;2023-02-28T07:08:51;103724.53;;;6.15;87.71
64362;BME280;50685;53.346;-6.296;2023-02-28T07:11:20;103728.78;;;6.13;87.72
64362;BME280;50685;53.346;-6.296;2023-02-28T07:13:47;103727.91;;;6.12;87.46
64362;BME280;50685;53.346;-6.296;2023-02-28T07:16:13;103731.44;;;6.13;86.67
64362;BME280;50685;53.346;-6.296;2023-02-28T07:18:38;103732.44;;;6.15;87.61
64362;BME280;50685;53.346;-6.296;2023-02-28T07:21:05;103735.06;;;6.15;87.80
64362;BME280;50685;53.346;-6.296;2023-02-28T07:26:06;103741.16;;;6.14;87.29
64362;BME280;50685;53.346;-6.296;2023-02-28T07:47:31;103752.69;;;5.99;86.13
64362;BME280;50685;53.346;-6.296;2023-02-28T07:56:08;103766.69;;;5.83;86.68
64362;BME280;50685;53.346;-6.296;2023-02-28T07:58:39;103768.19;;;5.78;86.24
64362;BME280;50685;53.346;-6.296;2023-02-28T08:01:07;103770.00;;;5.79;86.18
64362;BME280;50685;53.346;-6.296;2023-02-28T08:03:33;103764.81;;;5.81;85.70
64362;BME280;50685;53.346;-6.296;2023-02-28T08:40:58;103780.34;;;6.24;79.17
64362;BME280;50685;53.346;-6.296;2023-02-28T08:43:29;103778.03;;;6.30;78.54
64362;BME280;50685;53.346;-6.296;2023-02-28T08:46:03;103785.44;;;6.37;78.50
64362;BME280;50685;53.346;-6.296;2023-02-28T08:49:03;103784.06;;;6.44;77.69
64362;BME280;50685;53.346;-6.296;2023-02-28T08:51:42;103779.00;;;6.49;77.06
64362;BME280;50685;53.346;-6.296;2023-02-28T08:54:09;103783.44;;;6.50;76.51
64362;BME280;50685;53.346;-6.296;2023-02-28T08:59:16;103793.69;;;6.60;76.52
64362;BME280;50685;53.346;-6.296;2023-02-28T09:01:49;103792.19;;;6.65;76.41
64362;BME280;50685;53.346;-6.296;2023-02-28T09:29:41;103801.28;;;6.88;71.50
64362;BME280;50685;53.346;-6.296;2023-02-28T09:39:06;103816.78;;;7.35;70.71
64362;BME280;50685;53.346;-6.296;2023-02-28T09:44:56;103808.69;;;7.68;69.71
64362;BME280;50685;53.346;-6.296;2023-02-28T09:56:23;103802.16;;;7.97;68.78
64362;BME280;50685;53.346;-6.296;2023-02-28T10:01:57;103805.09;;;8.43;65.50
64362;BME280;50685;53.346;-6.296;2023-02-28T10:04:52;103802.91;;;8.52;66.07
64362;BME280;50685;53.346;-6.296;2023-02-28T10:10:06;103799.97;;;8.26;65.89
64362;BME280;50685;53.346;-6.296;2023-02-28T10:12:41;103800.34;;;8.16;65.67
64362;BME280;50685;53.346;-6.296;2023-02-28T10:15:13;103799.78;;;8.03;65.89
64362;BME280;50685;53.346;-6.296;2023-02-28T10:17:40;103801.81;;;8.09;66.56
64362;BME280;50685;53.346;-6.296;2023-02-28T10:20:21;103802.53;;;8.25;66.50
64362;BME280;50685;53.346;-6.296;2023-02-28T10:23:03;103798.97;;;8.63;65.49
64362;BME280;50685;53.346;-6.296;2023-02-28T10:28:52;103809.78;;;9.10;62.50
64362;BME280;50685;53.346;-6.296;2023-02-28T10:31:23;103798.09;;;9.26;61.82
64362;BME280;50685;53.346;-6.296;2023-02-28T10:33:49;103806.28;;;9.32;61.23
64362;BME280;50685;53.346;-6.296;2023-02-28T10:36:16;103804.38;;;9.28;60.66
64362;BME280;50685;53.346;-6.296;2023-02-28T10:38:57;103802.56;;;9.27;61.33
64362;BME280;50685;53.346;-6.296;2023-02-28T10:51:04;103804.72;;;10.04;58.64
64362;BME280;50685;53.346;-6.296;2023-02-28T10:56:38;103802.31;;;10.59;56.73
64362;BME280;50685;53.346;-6.296;2023-02-28T10:59:32;103802.38;;;10.60;54.64
64362;BME280;50685;53.346;-6.296;2023-02-28T11:05:28;103804.31;;;10.40;57.59
64362;BME280;50685;53.346;-6.296;2023-02-28T11:17:21;103803.16;;;10.58;56.07
64362;BME280;50685;53.346;-6.296;2023-02-28T11:20:02;103793.69;;;10.40;55.72
64362;BME280;50685;53.346;-6.296;2023-02-28T11:22:31;103790.06;;;10.38;57.09
64362;BME280;50685;53.346;-6.296;2023-02-28T11:25:02;103792.06;;;10.44;56.70
64362;BME280;50685;53.346;-6.296;2023-02-28T11:30:39;103797.38;;;9.97;58.40
64362;BME280;50685;53.346;-6.296;2023-02-28T11:35:51;103802.06;;;10.04;59.36
64362;BME280;50685;53.346;-6.296;2023-02-28T11:38:26;103804.63;;;10.03;58.62
64362;BME280;50685;53.346;-6.296;2023-02-28T11:51:43;103806.31;;;8.90;62.36
64362;BME280;50685;53.346;-6.296;2023-02-28T12:14:03;103795.41;;;8.82;64.16
64362;BME280;50685;53.346;-6.296;2023-02-28T12:16:43;103790.88;;;9.22;63.21
64362;BME280;50685;53.346;-6.296;2023-02-28T12:19:21;103793.78;;;9.51;61.70
64362;BME280;50685;53.346;-6.296;2023-02-28T12:26:45;103787.06;;;9.37;59.73
64362;BME280;50685;53.346;-6.296;2023-02-28T12:29:19;103784.41;;;9.37;60.17
64362;BME280;50685;53.346;-6.296;2023-02-28T12:31:49;103783.44;;;9.35;59.37
64362;BME280;50685;53.346;-6.296;2023-02-28T12:37:04;103778.88;;;9.30;59.71
64362;BME280;50685;53.346;-6.296;2023-02-28T12:39:33;103773.47;;;9.29;60.07
64362;BME280;50685;53.346;-6.296;2023-02-28T12:42:19;103772.19;;;9.19;59.94
64362;BME280;50685;53.346;-6.296;2023-02-28T12:45:07;103783.47;;;8.92;59.51
64362;BME280;50685;53.346;-6.296;2023-02-28T12:47:36;103778.38;;;8.56;59.55
64362;BME280;50685;53.346;-6.296;2023-02-28T12:50:04;103780.69;;;8.48;60.99
64362;BME280;50685;53.346;-6.296;2023-02-28T13:03:40;103762.34;;;8.94;60.45
64362;BME280;50685;53.346;-6.296;2023-02-28T13:11:46;103759.72;;;8.94;60.21
64362;BME280;50685;53.346;-6.296;2023-02-28T13:19:37;103753.88;;;8.60;60.53
64362;BME280;50685;53.346;-6.296;2023-02-28T13:22:04;103765.28;;;8.40;60.96
64362;BME280;50685;53.346;-6.296;2023-02-28T13:29:43;103758.16;;;8.17;61.68
64362;BME280;50685;53.346;-6.296;2023-02-28T13:32:30;103758.16;;;8.17;62.05
64362;BME280;50685;53.346;-6.296;2023-02-28T13:37:43;103749.16;;;8.14;61.32
64362;BME280;50685;53.346;-6.296;2023-02-28T13:47:51;103738.72;;;8.17;62.49
64362;BME280;50685;53.346;-6.296;2023-02-28T14:21:29;103718.34;;;7.95;63.06
64362;BME280;50685;53.346;-6.296;2023-02-28T14:40:43;103710.91;;;8.06;62.41
64362;BME280;50685;53.346;-6.296;2023-02-28T14:43:46;103715.75;;;7.96;63.39
64362;BME280;50685;53.346;-6.296;2023-02-28T15:00:24;103712.94;;;7.92;62.66
64362;BME280;50685;53.346;-6.296;2023-02-28T15:05:54;103705.50;;;7.83;62.32
64362;BME280;50685;53.346;-6.296;2023-02-28T15:08:26;103700.88;;;7.79;61.93
64362;BME280;50685;53.346;-6.296;2023-02-28T15:26:38;103695.47;;;7.56;64.29
64362;BME280;50685;53.346;-6.296;2023-02-28T15:32:27;103695.41;;;7.36;64.54
64362;BME280;50685;53.346;-6.296;2023-02-28T15:49:51;103698.00;;;7.54;63.83
64362;BME280;50685;53.346;-6.296;2023-02-28T15:52:21;103697.88;;;7.51;63.43
64362;BME280;50685;53.346;-6.296;2023-02-28T15:54:54;103692.38;;;7.47;63.54
64362;BME280;50685;53.346;-6.296;2023-02-28T15:57:24;103696.81;;;7.48;63.52
64362;BME280;50685;53.346;-6.296;2023-02-28T15:59:55;103699.47;;;7.48;63.23
64362;BME280;50685;53.346;-6.296;2023-02-28T16:02:34;103693.72;;;7.38;62.28
64362;BME280;50685;53.346;-6.296;2023-02-28T16:07:38;103691.56;;;7.30;62.97
64362;BME280;50685;53.346;-6.296;2023-02-28T16:10:06;103702.66;;;7.22;62.69
64362;BME280;50685;53.346;-6.296;2023-02-28T16:12:33;103695.78;;;7.26;63.06
64362;BME280;50685;53.346;-6.296;2023-02-28T16:15:22;103700.41;;;7.30;63.22
64362;BME280;50685;53.346;-6.296;2023-02-28T16:17:46;103685.41;;;7.29;62.68
64362;BME280;50685;53.346;-6.296;2023-02-28T16:20:22;103708.03;;;7.24;62.59
64362;BME280;50685;53.346;-6.296;2023-02-28T16:22:50;103690.16;;;7.18;62.34
64362;BME280;50685;53.346;-6.296;2023-02-28T16:25:29;103694.25;;;7.12;62.54
64362;BME280;50685;53.346;-6.296;2023-02-28T16:28:07;103698.53;;;7.10;62.53
64362;BME280;50685;53.346;-6.296;2023-02-28T16:30:38;103702.16;;;7.12;62.66
64362;BME280;50685;53.346;-6.296;2023-02-28T16:33:04;103711.56;;;7.06;62.56
64362;BME280;50685;53.346;-6.296;2023-02-28T16:35:29;103703.50;;;7.03;62.57
64362;BME280;50685;53.346;-6.296;2023-02-28T16:37:54;103705.09;;;7.00;62.94
64362;BME280;50685;53.346;-6.296;2023-02-28T16:40:24;103705.03;;;6.98;62.67
64362;BME280;50685;53.346;-6.296;2023-02-28T16:42:51;103699.81;;;7.00;62.75
64362;BME280;50685;53.346;-6.296;2023-02-28T16:45:24;103711.38;;;7.02;63.29
64362;BME280;50685;53.346;-6.296;2023-02-28T16:47:50;103699.28;;;7.07;62.82
64362;BME280;50685;53.346;-6.296;2023-02-28T16:50:16;103702.88;;;7.09;62.84
64362;BME280;50685;53.346;-6.296;2023-02-28T16:52:43;103708.09;;;7.07;63.17
64362;BME280;50685;53.346;-6.296;2023-02-28T16:55:08;103706.38;;;7.08;63.18
64362;BME280;50685;53.346;-6.296;2023-02-28T16:57:34;103705.69;;;7.12;62.84
64362;BME280;50685;53.346;-6.296;2023-02-28T16:59:59;103700.25;;;7.09;62.71
64362;BME280;50685;53.346;-6.296;2023-02-28T17:02:24;103700.13;;;7.06;63.03
64362;BME280;50685;53.346;-6.296;2023-02-28T17:04:50;103706.97;;;7.02;63.26
64362;BME280;50685;53.346;-6.296;2023-02-28T17:33:28;103716.84;;;6.88;64.17
64362;BME280;50685;53.346;-6.296;2023-02-28T17:35:53;103709.25;;;6.95;64.05
64362;BME280;50685;53.346;-6.296;2023-02-28T17:38:19;103718.06;;;6.95;63.94
64362;BME280;50685;53.346;-6.296;2023-02-28T17:40:44;103722.34;;;6.93;64.34
64362;BME280;50685;53.346;-6.296;2023-02-28T17:45:45;103727.94;;;6.81;64.90
64362;BME280;50685;53.346;-6.296;2023-02-28T17:48:11;103722.72;;;6.83;64.43
64362;BME280;50685;53.346;-6.296;2023-02-28T17:50:37;103723.94;;;6.89;64.49
64362;BME280;50685;53.346;-6.296;2023-02-28T17:53:02;103734.34;;;6.86;64.26
64362;BME280;50685;53.346;-6.296;2023-02-28T17:55:28;103733.19;;;6.81;63.86
64362;BME280;50685;53.346;-6.296;2023-02-28T18:00:24;103734.59;;;6.74;64.72
64362;BME280;50685;53.346;-6.296;2023-02-28T18:02:51;103738.81;;;6.71;64.22
64362;BME280;50685;53.346;-6.296;2023-02-28T18:05:17;103739.56;;;6.68;64.83
64362;BME280;50685;53.346;-6.296;2023-02-28T18:07:42;103740.41;;;6.67;64.99
64362;BME280;50685;53.346;-6.296;2023-02-28T18:10:14;103746.84;;;6.72;64.93
64362;BME280;50685;53.346;-6.296;2023-02-28T18:12:46;103748.78;;;6.77;65.17
64362;BME280;50685;53.346;-6.296;2023-02-28T18:15:12;103742.44;;;6.73;64.39
64362;BME280;50685;53.346;-6.296;2023-02-28T18:17:38;103754.81;;;6.74;64.67
64362;BME280;50685;53.346;-6.296;2023-02-28T18:22:39;103756.69;;;6.77;64.51
64362;BME280;50685;53.346;-6.296;2023-02-28T18:27:40;103755.88;;;6.78;64.77
64362;BME280;50685;53.346;-6.296;2023-02-28T18:38:03;103754.44;;;6.84;64.92
64362;BME280;50685;53.346;-6.296;2023-02-28T18:40:29;103750.91;;;6.84;64.70
64362;BME280;50685;53.346;-6.296;2023-02-28T18:45:24;103748.78;;;6.77;65.49
64362;BME280;50685;53.346;-6.296;2023-02-28T18:47:49;103750.59;;;6.78;65.27
64362;BME280;50685;53.346;-6.296;2023-02-28T18:50:16;103749.53;;;6.74;65.59
64362;BME280;50685;53.346;-6.296;2023-02-28T18:52:41;103746.84;;;6.72;65.57
64362;BME280;50685;53.346;-6.296;2023-02-28T18:55:07;103753.06;;;6.74;65.65
64362;BME280;50685;53.346;-6.296;2023-02-28T18:57:33;103747.78;;;6.74;65.97
64362;BME280;50685;53.346;-6.296;2023-02-28T19:00:06;103746.66;;;6.69;66.82
64362;BME280;50685;53.346;-6.296;2023-02-28T19:05:05;103744.94;;;6.70;67.59
64362;BME280;50685;53.346;-6.296;2023-02-28T19:32:28;103752.75;;;6.68;67.75
64362;BME280;50685;53.346;-6.296;2023-02-28T19:53:26;103771.09;;;6.65;67.36
64362;BME280;50685;53.346;-6.296;2023-02-28T19:55:53;103778.06;;;6.65;67.36
64362;BME280;50685;53.346;-6.296;2023-02-28T19:58:45;103771.72;;;6.61;67.33
64362;BME280;50685;53.346;-6.296;2023-02-28T20:01:17;103771.72;;;6.61;67.60
64362;BME280;50685;53.346;-6.296;2023-02-28T20:10:03;103767.00;;;6.54;66.83
64362;BME280;50685;53.346;-6.296;2023-02-28T20:18:56;103767.88;;;6.54;66.94
64362;BME280;50685;53.346;-6.296;2023-02-28T20:27:07;103775.03;;;6.57;65.52
64362;BME280;50685;53.346;-6.296;2023-02-28T20:29:33;103777.69;;;6.57;65.66
64362;BME280;50685;53.346;-6.296;2023-02-28T20:31:59;103772.97;;;6.51;64.35
64362;BME280;50685;53.346;-6.296;2023-02-28T20:49:18;103771.03;;;6.47;63.68
64362;BME280;50685;53.346;-6.296;2023-02-28T20:54:47;103763.19;;;6.49;63.35
64362;BME280;50685;53.346;-6.296;2023-02-28T20:57:12;103760.66;;;6.50;63.51
64362;BME280;50685;53.346;-6.296;2023-02-28T20:59:37;103761.47;;;6.49;64.17
64362;BME280;50685;53.346;-6.296;2023-02-28T21:02:11;103757.16;;;6.51;64.09
64362;BME280;50685;53.346;-6.296;2023-02-28T21:04:38;103759.78;;;6.51;63.87
64362;BME280;50685;53.346;-6.296;2023-02-28T21:07:03;103759.72;;;6.50;64.05